Bookmark and Share
Track history (hours):
 

Anne Sibum

Last reported at 2014-Apr-21 05:11 UTC. Time now 2014-Apr-23 15:30 UTC.
Position N 59°32' E 021°13'.

Length 151 m; draft 7.1 m.

Type: Cargo ship. MMSI: 209322000.

NotesDate/timePositionNaut miles runAvg speedWind from/ knotsBaromVisibWave heightAir tempDewpointWater temp
2014-Apr-21 05:11N 59°32' E 021°13'913.8
2014-Apr-21 04:34N 59°30' E 021°30'1413.8
2014-Apr-21 03:33N 59°30' E 021°57'2013.9
2014-Apr-21 02:06N 59°31' E 022°37'814.0
2014-Apr-21 01:32N 59°33' E 022°52'1414.1
2014-Apr-21 00:33N 59°37' E 023°18'1414.1
2014-Apr-20 23:33N 59°41' E 023°45'1414.0
2014-Apr-20 22:33N 59°45' E 024°12'1414.0
2014-Apr-20 21:33N 59°49' E 024°39'5513.9
2014-Apr-20 17:33N 60°00' E 026°27'1413.6
2014-Apr-20 16:33N 60°00' E 026°54'9712.1
2014-Apr-20 08:33N 59°54' E 030°07'3 2.6
2014-Apr-20 07:33N 59°53' E 030°12'0 0.0
2014-Apr-20 06:31N 59°53' E 030°12'0 0.0
2014-Apr-20 05:28N 59°53' E 030°12'0 0.1
2014-Apr-20 04:33N 59°53' E 030°11'0 0.0
2014-Apr-20 03:33N 59°53' E 030°11'0 0.0
2014-Apr-20 02:32N 59°53' E 030°12'0 0.0
2014-Apr-20 01:26N 59°53' E 030°11'0 0.0
2014-Apr-20 00:30N 59°53' E 030°12'0 0.0
2014-Apr-19 23:31N 59°53' E 030°11'0 0.0
2014-Apr-19 22:31N 59°53' E 030°12'0 0.0
2014-Apr-19 21:33N 59°53' E 030°11'0 0.0
2014-Apr-19 20:33N 59°53' E 030°12'0 0.0
2014-Apr-19 19:32N 59°53' E 030°11'0 0.0
2014-Apr-19 18:32N 59°53' E 030°11'0 0.0
2014-Apr-19 17:31N 59°53' E 030°11'0 0.1
2014-Apr-19 16:31N 59°53' E 030°11'1 0.1
2014-Apr-19 03:14N 59°52' E 030°12'107 5.2
2014-Apr-18 06:31N 59°59' E 026°39'5115.6
2014-Apr-18 03:15N 59°48' E 025°00'1115.5
2014-Apr-18 02:33N 59°45' E 024°40'3415.5
2014-Apr-18 00:21N 59°35' E 023°35'1215.4
2014-Apr-17 23:32N 59°32' E 023°11'29115.7
2014-Apr-17 05:03N 56°05' E 016°49'816.0
2014-Apr-17 04:33N 56°00' E 016°37'3216.0
2014-Apr-17 02:33N 55°45' E 015°47'1716.0
2014-Apr-17 01:31N 55°37' E 015°21'1515.7
2014-Apr-17 00:33N 55°29' E 014°58'1615.6
2014-Apr-16 23:33N 55°21' E 014°35'1616.0
2014-Apr-16 22:33N 55°08' E 014°18'1515.2
2014-Apr-16 21:33N 54°59' E 013°56'1615.8
2014-Apr-16 20:34N 54°53' E 013°30'1615.7
2014-Apr-16 19:34N 54°49' E 013°04'1514.8
2014-Apr-16 18:33N 54°43' E 012°41'1515.4
2014-Apr-16 17:33N 54°35' E 012°18'1413.6
2014-Apr-16 16:33N 54°25' E 012°02'1514.9
2014-Apr-16 15:33N 54°27' E 011°37'1514.3
2014-Apr-16 14:29N 54°34' E 011°13'59 8.5
2014-Apr-16 07:32N 54°15' E 009°37'7 6.9
2014-Apr-16 06:33N 54°11' E 009°28'5 4.7
2014-Apr-16 05:33N 54°09' E 009°21'7 6.6
2014-Apr-16 04:33N 54°02' E 009°18'6 6.2
2014-Apr-16 03:33N 53°57' E 009°14'3 2.5
2014-Apr-16 02:33N 53°55' E 009°11'3 3.0
2014-Apr-16 01:33N 53°53' E 009°07'1 1.1
2014-Apr-16 00:33N 53°53' E 009°08'1 1.1
2014-Apr-15 23:33N 53°53' E 009°10'6 6.3
2014-Apr-15 22:33N 53°51' E 009°20'1514.7
2014-Apr-15 21:33N 53°38' E 009°32'1313.3
2014-Apr-15 20:33N 53°33' E 009°53'3 2.4
2014-Apr-15 19:31N 53°32' E 009°57'0 0.0
2014-Apr-15 18:25N 53°32' E 009°57'0 0.0
2014-Apr-15 17:31N 53°32' E 009°57'1 0.8
2014-Apr-15 16:27N 53°31' E 009°58'0 0.0
2014-Apr-15 15:33N 53°31' E 009°58'0 0.0
2014-Apr-15 12:30N 53°31' E 009°58'2 1.8
2014-Apr-15 11:34N 53°32' E 009°55'0 0.0
2014-Apr-15 10:34N 53°32' E 009°55'0 0.0
2014-Apr-15 09:34N 53°32' E 009°55'0 0.3
2014-Apr-15 08:33N 53°32' E 009°55'2 0.8
2014-Apr-15 06:30N 53°31' E 009°56'0 0.0
2014-Apr-15 03:32N 53°31' E 009°56'1 0.4
2014-Apr-15 01:33N 53°31' E 009°56'1 1.3
2014-Apr-15 00:31N 53°32' E 009°55'0 0.0
2014-Apr-14 21:30N 53°32' E 009°55'0 0.0
2014-Apr-14 20:29N 53°32' E 009°55'0 0.0
2014-Apr-14 13:32N 53°32' E 009°55'0 0.0
2014-Apr-14 11:31N 53°32' E 009°55'0 0.0
2014-Apr-14 10:31N 53°32' E 009°55'0 0.0
2014-Apr-14 09:33N 53°32' E 009°55'0 0.0
2014-Apr-14 07:30N 53°32' E 009°55'2 0.2
2014-Apr-13 22:32N 53°32' E 009°58'0 0.0
2014-Apr-13 21:25N 53°32' E 009°58'0 0.0
2014-Apr-13 20:28N 53°32' E 009°58'0 0.0
2014-Apr-13 19:33N 53°32' E 009°58'0 0.0
2014-Apr-13 18:30N 53°32' E 009°58'0 0.0
2014-Apr-13 17:32N 53°32' E 009°58'0 0.0
2014-Apr-13 16:23N 53°32' E 009°58'0 0.0
2014-Apr-13 15:29N 53°32' E 009°58'0 0.0
2014-Apr-13 14:28N 53°32' E 009°58'0 0.0
2014-Apr-13 13:28N 53°32' E 009°58'0 0.0
2014-Apr-13 12:21N 53°32' E 009°58'0 0.0
2014-Apr-13 11:27N 53°32' E 009°58'0 0.0
2014-Apr-13 10:26N 53°32' E 009°58'0 0.0
2014-Apr-13 09:32N 53°32' E 009°58'0 0.0
2014-Apr-13 08:32N 53°32' E 009°58'0 0.0
2014-Apr-13 07:19N 53°32' E 009°58'0 0.0
2014-Apr-13 06:19N 53°32' E 009°58'0 0.0
2014-Apr-13 05:12N 53°32' E 009°58'1 1.1
2014-Apr-13 04:33N 53°32' E 009°57'2 2.1
2014-Apr-13 03:29N 53°30' E 009°56'0 0.0
2014-Apr-13 02:22N 53°30' E 009°56'0 0.0
2014-Apr-13 01:28N 53°30' E 009°56'0 0.0
2014-Apr-13 00:33N 53°30' E 009°56'0 0.0
2014-Apr-12 23:33N 53°30' E 009°56'0 0.0
2014-Apr-12 22:32N 53°30' E 009°56'0 0.0
2014-Apr-12 21:20N 53°30' E 009°56'0 0.0
2014-Apr-12 20:26N 53°30' E 009°56'0 0.0
2014-Apr-12 19:31N 53°30' E 009°56'0 0.0
2014-Apr-12 18:13N 53°30' E 009°56'0 0.0
2014-Apr-12 17:30N 53°30' E 009°56'0 0.0
2014-Apr-12 16:30N 53°30' E 009°56'0 0.0
2014-Apr-12 15:29N 53°30' E 009°56'0 0.1
2014-Apr-12 14:33N 53°30' E 009°57'1 0.6
2014-Apr-12 13:33N 53°31' E 009°56'9 9.1
2014-Apr-12 12:33N 53°34' E 009°42'1212.2
2014-Apr-12 11:33N 53°43' E 009°28'9 9.1
2014-Apr-12 10:32N 53°51' E 009°19'0 0.1
2014-Apr-12 09:32N 53°51' E 009°20'0 0.0
2014-Apr-12 08:31N 53°51' E 009°19'6 6.0
2014-Apr-12 07:33N 53°53' E 009°10'1 1.3
2014-Apr-12 06:33N 53°54' E 009°09'2 2.2
2014-Apr-12 05:33N 53°55' E 009°12'8 8.1
2014-Apr-12 04:33N 54°03' E 009°18'7 6.9
2014-Apr-12 03:33N 54°09' E 009°22'7 7.2
2014-Apr-12 02:33N 54°12' E 009°33'8 6.7
2014-Apr-12 01:20N 54°18' E 009°42'6 7.5
2014-Apr-12 00:32N 54°22' E 009°51'44 8.1
2014-Apr-11 19:07N 54°36' E 011°02'811.6
2014-Apr-11 18:27N 54°35' E 011°15'1213.2
2014-Apr-11 17:34N 54°30' E 011°34'1212.4
2014-Apr-11 16:34N 54°26' E 011°54'1111.0
2014-Apr-11 15:33N 54°29' E 012°13'1812.5
2014-Apr-11 14:06N 54°44' E 012°32'1313.3
2014-Apr-11 13:09N 54°49' E 012°52'813.1
2014-Apr-11 12:33N 54°52' E 013°05'1313.1
2014-Apr-11 11:33N 54°56' E 013°26'1313.2
2014-Apr-11 10:33N 55°01' E 013°48'1313.0
2014-Apr-11 09:34N 55°07' E 014°08'1312.8
2014-Apr-11 08:33N 55°17' E 014°22'1312.8
2014-Apr-11 07:34N 55°27' E 014°36'1313.0
2014-Apr-11 06:34N 55°33' E 014°56'1413.4
2014-Apr-11 05:32N 55°40' E 015°17'  

Dump ship's entire track history

sailing weather and tide predictions

Anne Sibum — C4YC2 — position and weather